createdAt,value
2019-04-11T00:01:12.253Z,20.40
2019-04-11T00:04:26.285Z,20.00
2019-04-11T00:07:40.512Z,19.77
2019-04-11T00:10:54.122Z,19.13
2019-04-11T00:14:07.703Z,24.17
2019-04-11T00:17:21.657Z,20.97
2019-04-11T00:20:36.050Z,20.80
2019-04-11T00:23:50.270Z,22.00
2019-04-11T00:27:04.574Z,21.90
2019-04-11T00:30:20.505Z,19.37
2019-04-11T00:33:34.320Z,27.47
2019-04-11T00:36:48.487Z,20.30
2019-04-11T00:40:03.788Z,26.33
2019-04-11T00:43:28.516Z,23.67
2019-04-11T00:46:34.125Z,28.30
2019-04-11T00:49:48.464Z,25.83
2019-04-11T00:53:03.467Z,24.60
2019-04-11T00:56:17.854Z,26.70
2019-04-11T00:59:32.217Z,30.33
2019-04-11T01:02:45.919Z,42.03
2019-04-11T01:05:59.835Z,43.93
2019-04-11T01:09:13.418Z,34.20
2019-04-11T01:12:26.998Z,39.97
2019-04-11T01:15:44.879Z,34.97
2019-04-11T01:18:58.706Z,25.83
2019-04-11T01:22:12.633Z,29.70
2019-04-11T01:25:26.766Z,20.53
2019-04-11T01:28:40.351Z,23.13
2019-04-11T01:31:58.592Z,20.43
2019-04-11T01:35:13.108Z,23.03
2019-04-11T01:38:28.273Z,24.87
2019-04-11T01:41:42.636Z,23.37
2019-04-11T01:44:56.903Z,27.83
2019-04-11T01:48:15.611Z,21.57
2019-04-11T01:51:29.689Z,23.57
2019-04-11T01:54:43.875Z,28.30
2019-04-11T01:57:58.367Z,25.40
2019-04-11T02:01:21.677Z,22.70
2019-04-11T02:04:46.355Z,21.67
2019-04-11T02:08:00.864Z,23.37
2019-04-11T02:11:15.060Z,22.87
2019-04-11T02:14:28.960Z,26.17
2019-04-11T02:17:43.218Z,25.50
2019-04-11T02:20:57.652Z,23.37
2019-04-11T02:24:32.010Z,24.63
2019-04-11T02:27:46.294Z,28.53
2019-04-11T02:31:02.489Z,26.30
2019-04-11T02:34:16.201Z,29.37
2019-04-11T02:37:31.535Z,25.83
2019-04-11T02:40:47.466Z,26.60
2019-04-11T02:44:01.642Z,27.03
2019-04-11T02:47:22.948Z,26.20
2019-04-11T02:50:34.296Z,27.27
2019-04-11T02:53:49.603Z,28.63
2019-04-11T02:57:05.582Z,29.00
2019-04-11T03:00:20.600Z,29.30
2019-04-11T03:03:34.486Z,32.53
2019-04-11T03:06:49.682Z,25.97
2019-04-11T03:10:04.899Z,26.93
2019-04-11T03:13:20.903Z,31.63
2019-04-11T03:16:46.191Z,27.43
2019-04-11T03:20:04.197Z,32.17
2019-04-11T03:23:08.602Z,32.20
2019-04-11T03:26:21.600Z,34.57
2019-04-11T03:29:36.350Z,30.43
2019-04-11T03:37:00.727Z,31.33
2019-04-11T03:39:43.592Z,30.70
2019-04-11T03:42:55.625Z,33.43
2019-04-11T03:46:14.265Z,31.53
2019-04-11T03:49:22.581Z,32.23
2019-04-11T03:52:26.070Z,28.23
2019-04-11T03:55:39.855Z,35.90
2019-04-11T03:58:55.192Z,31.17
2019-04-11T04:02:11.042Z,39.80
2019-04-11T04:05:26.366Z,31.53
2019-04-11T04:08:42.276Z,32.67
2019-04-11T04:11:56.868Z,37.30
2019-04-11T04:15:53.192Z,32.33
2019-04-11T04:19:11.111Z,37.30
2019-04-11T04:22:29.425Z,28.87
2019-04-11T04:25:46.802Z,30.77
2019-04-11T04:28:59.924Z,26.90
2019-04-11T04:32:14.280Z,28.93
2019-04-11T04:35:28.952Z,29.17
2019-04-11T04:38:44.575Z,32.73
2019-04-11T04:42:08.304Z,28.90
2019-04-11T04:45:16.245Z,30.17
2019-04-11T04:48:31.441Z,35.23
2019-04-11T04:51:47.886Z,33.37
2019-04-11T04:55:04.495Z,33.80
2019-04-11T04:58:20.204Z,28.90
2019-04-11T05:01:35.063Z,34.10
2019-04-11T05:04:48.746Z,34.80
2019-04-11T05:08:02.896Z,33.07
2019-04-11T05:11:17.980Z,31.90
2019-04-11T05:14:31.785Z,40.37
2019-04-11T05:17:46.284Z,41.23
2019-04-11T05:21:01.023Z,45.50
2019-04-11T05:24:14.847Z,48.17
2019-04-11T05:27:29.311Z,32.80
2019-04-11T05:30:42.774Z,36.30
2019-04-11T05:33:56.604Z,50.80
2019-04-11T05:37:11.109Z,52.53
2019-04-11T05:40:25.965Z,39.77
2019-04-11T05:43:41.307Z,43.53
2019-04-11T05:46:59.096Z,38.77
2019-04-11T05:50:31.933Z,38.17
2019-04-11T05:53:48.598Z,33.17
2019-04-11T05:57:01.377Z,36.07
2019-04-11T06:00:23.495Z,34.43
2019-04-11T06:03:41.100Z,36.03
2019-04-11T06:06:58.383Z,35.07
2019-04-11T06:10:16.382Z,40.33
2019-04-11T06:13:36.803Z,33.63
2019-04-11T06:16:55.738Z,28.80
2019-04-11T06:20:37.714Z,22.07
2019-04-11T06:24:12.037Z,21.87
2019-04-11T06:27:33.545Z,17.93
2019-04-11T06:31:06.111Z,17.57
2019-04-11T06:34:19.641Z,19.77
2019-04-11T06:37:47.171Z,16.80
2019-04-11T06:41:06.374Z,19.80
2019-04-11T06:44:42.754Z,15.60
2019-04-11T06:48:23.129Z,12.70
2019-04-11T06:51:42.404Z,17.43
2019-04-11T06:58:35.718Z,12.43
2019-04-11T07:01:52.832Z,12.37
2019-04-11T07:05:07.881Z,13.93
2019-04-11T07:08:25.122Z,12.50
2019-04-11T07:11:50.742Z,15.47
2019-04-11T07:15:10.133Z,16.33
2019-04-11T07:18:40.943Z,12.03
2019-04-11T07:21:54.450Z,12.43
2019-04-11T07:25:28.882Z,15.57
2019-04-11T07:29:02.297Z,15.53
2019-04-11T07:32:18.004Z,14.00
2019-04-11T07:35:52.980Z,13.50
2019-04-11T07:39:20.776Z,12.23
2019-04-11T07:42:47.063Z,13.33
2019-04-11T07:46:25.015Z,15.83
2019-04-11T07:49:39.200Z,12.27
2019-04-11T07:52:58.203Z,12.70
2019-04-11T07:56:27.715Z,11.50
2019-04-11T08:00:10.429Z,14.20
2019-04-11T08:03:36.043Z,13.03
2019-04-11T08:07:21.969Z,14.40
2019-04-11T08:10:41.466Z,15.60
2019-04-11T08:14:13.224Z,12.30
2019-04-11T08:17:36.847Z,15.13
2019-04-11T08:21:20.536Z,13.60
2019-04-11T08:24:48.973Z,12.83
2019-04-11T08:28:07.818Z,12.60
2019-04-11T08:31:38.652Z,12.20
2019-04-11T08:35:01.969Z,11.47
2019-04-11T08:38:22.421Z,10.70
2019-04-11T08:41:55.111Z,10.67
2019-04-11T08:45:10.716Z,10.90
2019-04-11T08:48:24.729Z,11.47
2019-04-11T08:51:39.134Z,11.13
2019-04-11T08:55:04.258Z,10.73
2019-04-11T08:58:22.714Z,9.70
2019-04-11T09:01:36.464Z,9.40
2019-04-11T09:05:13.668Z,10.67
2019-04-11T09:08:56.473Z,9.13
2019-04-11T09:12:12.178Z,10.30
2019-04-11T09:15:51.141Z,10.50
2019-04-11T09:19:14.601Z,10.43
2019-04-11T09:22:51.561Z,9.77
2019-04-11T09:26:31.975Z,11.60
2019-04-11T09:29:50.356Z,10.07
2019-04-11T09:33:24.672Z,12.23
2019-04-11T09:36:46.933Z,12.73
2019-04-11T09:40:17.762Z,12.70
2019-04-11T09:43:31.821Z,11.33
2019-04-11T09:47:08.039Z,12.43
2019-04-11T09:50:40.588Z,11.97
2019-04-11T09:54:20.958Z,10.47
2019-04-11T09:57:37.721Z,9.73
2019-04-11T10:01:29.457Z,11.60
2019-04-11T10:04:43.775Z,13.37
2019-04-11T10:08:17.165Z,10.13
2019-04-11T10:11:59.256Z,11.93
2019-04-11T10:15:13.566Z,9.67
2019-04-11T10:18:43.666Z,10.53
2019-04-11T10:22:18.513Z,10.67
2019-04-11T10:25:35.309Z,7.80
2019-04-11T10:29:08.689Z,9.47
2019-04-11T10:32:25.446Z,9.53
2019-04-11T10:35:57.227Z,7.87
2019-04-11T10:39:22.994Z,7.73
2019-04-11T10:42:36.915Z,8.20
2019-04-11T10:46:16.039Z,7.70
2019-04-11T10:49:48.411Z,7.53
2019-04-11T10:53:03.296Z,7.70
2019-04-11T10:56:31.019Z,7.27
2019-04-11T10:59:44.933Z,7.23
2019-04-11T11:03:07.652Z,8.63
2019-04-11T11:06:23.994Z,7.40
2019-04-11T11:10:09.336Z,8.67
2019-04-11T11:13:58.407Z,8.13
2019-04-11T11:18:20.517Z,7.40
2019-04-11T11:21:07.405Z,7.13
2019-04-11T11:24:38.222Z,6.40
2019-04-11T11:27:50.860Z,8.77
2019-04-11T11:31:12.499Z,7.27
2019-04-11T11:34:35.240Z,7.43
2019-04-11T11:37:53.440Z,7.10
2019-04-11T11:41:45.506Z,7.00
2019-04-11T11:45:04.158Z,7.07
2019-04-11T11:48:41.778Z,7.63
2019-04-11T11:52:15.277Z,7.80
2019-04-11T11:55:33.506Z,8.40
2019-04-11T11:59:11.160Z,8.47
2019-04-11T12:02:28.842Z,7.40
2019-04-11T12:05:50.208Z,8.50
2019-04-11T12:09:38.484Z,7.60
2019-04-11T12:13:13.317Z,7.50
2019-04-11T12:16:48.340Z,8.23
2019-04-11T12:20:22.945Z,8.93
2019-04-11T12:24:15.472Z,8.17
2019-04-11T12:27:47.459Z,7.10
2019-04-11T12:31:05.504Z,8.70
2019-04-11T12:34:45.007Z,6.87
2019-04-11T12:38:04.307Z,7.73
2019-04-11T12:41:37.083Z,6.90
2019-04-11T12:45:09.106Z,7.43
2019-04-11T12:48:27.319Z,6.40
2019-04-11T12:52:09.149Z,6.57
2019-04-11T12:55:33.887Z,6.83
2019-04-11T12:59:25.647Z,7.17
2019-04-11T13:03:04.583Z,7.47
2019-04-11T13:06:34.577Z,7.10
2019-04-11T13:09:50.787Z,6.50
2019-04-11T13:13:24.149Z,7.23
2019-04-11T13:16:38.276Z,7.80
2019-04-11T13:20:10.813Z,6.20
2019-04-11T13:23:46.697Z,8.03
2019-04-11T13:27:26.149Z,6.60
2019-04-11T13:31:10.820Z,7.00
2019-04-11T13:34:24.918Z,6.80
2019-04-11T13:37:56.591Z,6.93
2019-04-11T13:41:28.460Z,6.70
2019-04-11T13:44:42.652Z,7.50
2019-04-11T13:48:14.314Z,10.80
2019-04-11T13:51:53.067Z,6.70
2019-04-11T13:55:24.521Z,7.67
2019-04-11T13:58:56.672Z,7.10
2019-04-11T14:02:18.858Z,6.40
2019-04-11T14:05:34.080Z,6.37
2019-04-11T14:09:10.299Z,6.33
2019-04-11T14:12:26.209Z,7.07
2019-04-11T14:15:40.804Z,6.50
2019-04-11T14:19:02.287Z,7.17
2019-04-11T14:22:16.641Z,7.47
2019-04-11T14:25:49.298Z,5.70
2019-04-11T14:29:25.618Z,6.90
2019-04-11T14:32:43.149Z,7.13
2019-04-11T14:36:34.798Z,6.70
2019-04-11T14:39:50.980Z,7.33
2019-04-11T14:43:23.354Z,10.23
2019-04-11T14:46:58.322Z,7.07
2019-04-11T14:50:12.371Z,7.43
2019-04-11T14:53:33.546Z,7.20
2019-04-11T14:57:06.385Z,7.50
2019-04-11T15:00:29.728Z,7.43
2019-04-11T15:04:01.611Z,8.30
2019-04-11T15:07:15.663Z,7.13
2019-04-11T15:10:49.133Z,7.33
2019-04-11T15:14:12.177Z,7.23
2019-04-11T15:17:28.662Z,6.90
2019-04-11T15:20:55.500Z,7.57
2019-04-11T15:24:08.164Z,6.97
2019-04-11T15:27:40.995Z,7.07
2019-04-11T15:30:57.397Z,7.10
2019-04-11T15:34:26.563Z,7.03
2019-04-11T15:37:58.420Z,7.03
2019-04-11T15:41:11.904Z,7.60
2019-04-11T15:44:48.352Z,7.90
2019-04-11T15:48:23.448Z,6.60
2019-04-11T15:51:44.931Z,9.37
2019-04-11T15:55:17.219Z,9.47
2019-04-11T15:58:37.318Z,8.67
2019-04-11T16:02:13.256Z,9.67
2019-04-11T16:05:49.750Z,7.80
2019-04-11T16:09:09.738Z,7.30
2019-04-11T16:12:30.922Z,8.63
2019-04-11T16:15:44.548Z,7.73
2019-04-11T16:19:17.995Z,10.83
2019-04-11T16:22:59.460Z,7.00
2019-04-11T16:26:17.385Z,7.27
2019-04-11T16:29:38.670Z,6.57
2019-04-11T16:33:06.284Z,7.10
2019-04-11T16:36:39.417Z,7.00
2019-04-11T16:40:11.187Z,7.13
2019-04-11T16:43:25.157Z,6.50
2019-04-11T16:46:56.805Z,8.83
2019-04-11T16:50:10.492Z,7.80
2019-04-11T16:53:24.060Z,17.63
2019-04-11T16:56:37.820Z,8.70
2019-04-11T16:59:51.435Z,8.30
2019-04-11T17:03:04.917Z,8.70
2019-04-11T17:06:36.962Z,9.17
2019-04-11T17:09:51.164Z,10.17
2019-04-11T17:13:04.628Z,9.93
2019-04-11T17:16:19.638Z,11.57
2019-04-11T17:19:35.816Z,26.03
2019-04-11T17:22:49.321Z,9.87
2019-04-11T17:26:03.448Z,8.47
2019-04-11T17:29:16.905Z,11.37
2019-04-11T17:32:30.633Z,7.87
2019-04-11T17:35:44.226Z,8.37
2019-04-11T17:38:57.687Z,7.20
2019-04-11T17:42:13.295Z,7.00
2019-04-11T17:45:26.868Z,8.80
2019-04-11T17:48:40.367Z,19.50
2019-04-11T17:51:56.000Z,31.20
2019-04-11T17:55:09.837Z,35.67
2019-04-11T17:58:26.762Z,9.53
2019-04-11T18:01:38.708Z,7.20
2019-04-11T18:04:52.462Z,8.53
2019-04-11T18:08:06.026Z,42.67
2019-04-11T18:11:19.980Z,95.50
2019-04-11T18:14:33.443Z,55.97
2019-04-11T18:17:46.912Z,16.30
2019-04-11T18:21:00.574Z,19.27
2019-04-11T18:24:14.044Z,9.87
2019-04-11T18:27:27.496Z,21.50
2019-04-11T18:30:42.565Z,14.00
2019-04-11T18:33:56.159Z,16.53
2019-04-11T18:37:09.971Z,15.87
2019-04-11T18:40:23.552Z,10.10
2019-04-11T18:43:36.999Z,9.40
2019-04-11T18:46:50.868Z,25.50
2019-04-11T18:50:06.162Z,12.03
2019-04-11T18:53:19.614Z,19.00
2019-04-11T18:56:33.296Z,39.50
2019-04-11T18:59:46.762Z,22.73
2019-04-11T19:03:00.331Z,19.40
2019-04-11T19:06:14.251Z,62.07
2019-04-11T19:09:28.203Z,26.17
2019-04-11T19:12:43.962Z,16.70
2019-04-11T19:15:57.043Z,9.77
2019-04-11T19:19:10.609Z,10.20
2019-04-11T19:22:37.044Z,14.03
2019-04-11T19:25:44.254Z,10.27
2019-04-11T19:28:55.785Z,9.83
2019-04-11T19:32:09.704Z,7.57
2019-04-11T19:35:23.183Z,8.00
2019-04-11T19:38:37.159Z,9.73
2019-04-11T19:41:50.624Z,9.60
2019-04-11T19:45:05.992Z,7.93
2019-04-11T19:48:19.448Z,8.30
2019-04-11T19:51:32.936Z,7.03
2019-04-11T19:54:46.421Z,12.17
2019-04-11T19:57:59.870Z,12.03
2019-04-11T20:01:13.363Z,14.17
2019-04-11T20:04:27.159Z,9.87
2019-04-11T20:07:40.627Z,9.17
2019-04-11T20:10:54.083Z,12.07
2019-04-11T20:14:07.981Z,10.67
2019-04-11T20:17:21.512Z,8.40
2019-04-11T20:20:37.028Z,10.13
2019-04-11T20:23:50.392Z,8.03
2019-04-11T20:27:03.839Z,10.73
2019-04-11T20:30:17.696Z,8.03
2019-04-11T20:33:34.705Z,8.63
2019-04-11T20:36:46.867Z,9.87
2019-04-11T20:40:00.336Z,8.37
2019-04-11T20:43:13.797Z,10.77
2019-04-11T20:46:29.198Z,9.90
2019-04-11T20:49:48.789Z,17.77
2019-04-11T20:53:11.937Z,13.73
2019-04-11T20:56:24.010Z,20.03
2019-04-11T20:59:34.737Z,19.83
2019-04-11T21:02:48.477Z,17.00
2019-04-11T21:06:02.566Z,15.00
2019-04-11T21:09:16.175Z,9.53
2019-04-11T21:12:29.916Z,18.30
2019-04-11T21:15:43.385Z,10.10
2019-04-11T21:18:56.930Z,10.20
2019-04-11T21:22:10.422Z,9.37
2019-04-11T21:25:26.090Z,8.73
2019-04-11T21:28:39.618Z,8.37
2019-04-11T21:31:53.098Z,8.60
2019-04-11T21:35:06.663Z,9.47
2019-04-11T21:38:20.329Z,7.60
2019-04-11T21:41:36.049Z,9.80
2019-04-11T21:44:49.191Z,8.23
2019-04-11T21:48:05.616Z,8.07
2019-04-11T21:51:18.498Z,7.40
2019-04-11T21:54:31.948Z,9.57
2019-04-11T21:57:48.355Z,9.77
2019-04-11T22:01:06.850Z,21.50
2019-04-11T22:04:39.996Z,9.50
2019-04-11T22:07:53.454Z,9.60
2019-04-11T22:11:09.839Z,13.47
2019-04-11T22:14:22.964Z,14.63
2019-04-11T22:17:36.414Z,13.60
2019-04-11T22:20:49.874Z,19.43
2019-04-11T22:24:03.561Z,15.67
2019-04-11T22:27:17.133Z,7.53
2019-04-11T22:30:30.592Z,11.70
2019-04-11T22:33:48.142Z,25.97
2019-04-11T22:37:01.781Z,24.93
2019-04-11T22:40:15.646Z,26.03
2019-04-11T22:43:29.376Z,16.53
2019-04-11T22:46:43.179Z,10.97
2019-04-11T22:49:56.773Z,12.43
2019-04-11T22:53:12.878Z,11.40
2019-04-11T22:56:25.615Z,17.17
2019-04-11T22:59:39.121Z,13.33
2019-04-11T23:03:12.251Z,11.03
2019-04-11T23:06:25.695Z,15.80
2019-04-11T23:09:39.163Z,15.70
2019-04-11T23:12:52.960Z,9.23
2019-04-11T23:16:06.534Z,9.77
2019-04-11T23:19:20.011Z,7.00
2019-04-11T23:22:33.516Z,7.50
2019-04-11T23:25:46.932Z,10.13
2019-04-11T23:29:00.951Z,8.67
2019-04-11T23:32:14.432Z,9.73
2019-04-11T23:35:27.918Z,7.83
2019-04-11T23:38:41.374Z,8.37
2019-04-11T23:41:55.155Z,8.10
2019-04-11T23:45:08.744Z,9.60
2019-04-11T23:48:24.012Z,7.90
2019-04-11T23:51:38.268Z,8.13
2019-04-11T23:54:52.291Z,7.50
2019-04-11T23:58:05.757Z,9.77
